AirNav   ATP
 
 343 users online  

D02 Osage Municipal Airport
Osage, Iowa, USA

GOING TO OSAGE?


FAA INFORMATION EFFECTIVE 11 OCTOBER 2018

Location

FAA Identifier: D02
Lat/Long: 43-17-32.4000N / 092-47-44.2000W
43-17.540000N / 092-47.736667W
43.2923333 / -92.7956111
(estimated)
Elevation: 1168 ft. / 356.0 m (surveyed)
Variation: 03E (1985)
From city: 1 mile NE of OSAGE, IA
Time zone: UTC -5 (UTC -6 during Standard Time)
Zip code: 50461

Airport Operations

Airport use: Open to the public
Activation date: 09/1957
Control tower: no
ARTCC: MINNEAPOLIS CENTER
FSS: FORT DODGE FLIGHT SERVICE STATION
NOTAMs facility: FOD (NOTAM-D service available)
Attendance: UNATNDD
Wind indicator: yes
Segmented circle: no
Lights: SS-SR

Airport Communications

CTAF/UNICOM: 122.8
WX AWOS-3 at CCY (15 nm SE): 125.525 (641-228-7069)
  • UNICOM LCTD OSAGE POLICE STN, 24 HR OPN, PHONE 641-732-3777.

Nearby radio navigation aids

VOR radial/distance  VOR name  Freq  Var
JAYr160/17.9AUSTIN VOR/DME108.2003E
MCWr057/26.2MASON CITY VOR/DME114.9006E
RSTr191/30.7ROCHESTER VOR/DME112.0005E
AELr132/34.2ALBERT LEA VOR/DME109.8001E

 
NDB name  Hdg/Dist  Freq  Var  ID
CHUKK343/10.041700WIY .. -.--
FOREST CITY082/36.235903EFXY ..-. -..- -.--

Airport Services

Parking: tiedowns
Airframe service: NONE
Powerplant service: NONE

Runway Information

Runway 17/35

Dimensions: 3400 x 50 ft. / 1036 x 15 m
Surface: asphalt, in fair condition
CAUTION, RUNWAY IS SUBJECT TO FROST HEAVES ON NORTH 1/2 OF RUNWAY
Runway edge lights: medium intensity
RUNWAY 17  RUNWAY 35
Latitude: 43-17.819617N43-17.259812N
Longitude: 092-47.733522W092-47.739243W
Traffic pattern: leftleft
Runway heading: 177 magnetic, 180 true357 magnetic, 000 true
Markings: basic, in fair conditionbasic, in fair condition
Obstructions: 21 ft. road, 600 ft. from runway, 19:1 slope to clear40 ft. pline, 930 ft. from runway, 18:1 slope to clear

Airport Ownership and Management from official FAA records

Ownership: Publicly-owned
Owner: CITY OF OSAGE
806 MAIN STREET, P.O. BOX 29
OSAGE, IA 50461
Phone 641-732-3709
Manager: JERRY DUNLAY PU WKS DIR
806 MAIN, P.O. BOX 29
OSAGE, IA 50461-1439
Phone 641-732-3709

Airport Operational Statistics

Aircraft based on the field: 6
Single engine airplanes: 6
    
Aircraft operations: avg 29/week *
60% transient general aviation
40% local general aviation
* for 12-month period ending 08 September 2017

Instrument Procedures

There are no published instrument procedures at D02.

Some nearby airports with instrument procedures:

KCCY - Northeast Iowa Regional Airport (15 nm SE)
KAUM - Austin Municipal Airport (23 nm N)
KMCW - Mason City Municipal Airport (25 nm W)
KCJJ - Ellen Church Field Airport (29 nm E)
KAEL - Albert Lea Municipal Airport (34 nm NW)
 
Loc | Ops | Rwys | IFR | FBO | Links
Com | Nav | Svcs | Stats | Notes


 
Area around D02 (Osage Municipal Airport)
 
Road maps at: MapQuest Bing Google
 
Aerial photo
WARNING: Photo may not be current or correct
Aerial photo of D02 (Osage Municipal Airport)
Do you have a better or more recent aerial photo of Osage Municipal Airport that you would like to share? If so, please send us your photo.

 
Sectional chart

 
Airport distance calculator
Flying to Osage Municipal Airport? Find the distance to fly.

From to D02

Sunrise and sunset
Times for 22-Oct-2018
 Local
(UTC-5)
 Zulu
(UTC)
Morning civil twilight07:0612:06
Sunrise07:3512:35
Sunset18:1723:17
Evening civil twilight18:4623:46

Current date and time
Zulu (UTC)  22-Oct-2018 08:52:39
Local (UTC-5)  22-Oct-2018 03:52:39
 
METAR
KCCY 
16nm SE 
220835Z AUTO 30003KT 01/M01 A3002 RMK AO2
KAUM 
23nm N 
220836Z AUTO 00000KT 10SM CLR M01/M02 A3002 RMK AO2
KMCW 
25nm W 
220753Z AUTO 29007KT 10SM CLR 01/M01 A3004 RMK AO2 SLP173 T00061006
TAF
KMCW 
25nm W 
220520Z 2206/2306 31004KT P6SM SKC FM221600 30013KT P6SM FEW250 FM230000 32008KT P6SM SKC
NOTAMs
Click for the latest NOTAMs
NOTAMs are issued by the DoD/FAA and will open in a separate window not controlled by AirNav.

 

 
 

Would you like to see your business listed on this page?

 If your business provides an interesting product or service to pilots, flight crews, aircraft, or users of the Osage Municipal Airport, you should consider listing it here.  To start the listing process, click on the button below
 
Add a business
 

Other Pages about Osage Municipal Airport

Page from the Iowa Airport Directory
 
Update a link
 
Copyright © AirNav, LLC. All rights reserved. Privacy Policy  Contact